createdAt,value
2018-10-21T00:01:31.803Z,61.30
2018-10-21T00:04:00.111Z,61.60
2018-10-21T00:06:28.704Z,61.70
2018-10-21T00:08:57.559Z,61.70
2018-10-21T00:11:26.070Z,61.70
2018-10-21T00:13:54.427Z,61.80
2018-10-21T00:16:23.016Z,62.20
2018-10-21T00:18:51.356Z,62.50
2018-10-21T00:21:19.668Z,63.00
2018-10-21T00:23:48.271Z,63.10
2018-10-21T00:26:16.871Z,63.00
2018-10-21T00:28:45.576Z,62.90
2018-10-21T00:31:13.955Z,62.90
2018-10-21T00:33:42.439Z,62.30
2018-10-21T00:36:10.675Z,62.40
2018-10-21T00:38:39.971Z,63.10
2018-10-21T00:41:08.277Z,63.30
2018-10-21T00:43:36.575Z,63.40
2018-10-21T00:46:05.556Z,63.00
2018-10-21T00:48:34.240Z,63.10
2018-10-21T00:51:02.642Z,63.40
2018-10-21T00:53:30.935Z,63.50
2018-10-21T00:55:59.263Z,63.60
2018-10-21T00:58:27.596Z,63.60
2018-10-21T01:00:55.865Z,63.70
2018-10-21T01:03:24.167Z,63.70
2018-10-21T01:05:52.403Z,63.80
2018-10-21T01:08:20.723Z,64.80
2018-10-21T01:10:49.406Z,64.20
2018-10-21T01:13:18.073Z,64.70
2018-10-21T01:15:46.383Z,64.90
2018-10-21T01:18:15.041Z,65.10
2018-10-21T01:20:43.724Z,65.00
2018-10-21T01:23:12.095Z,65.10
2018-10-21T01:25:40.393Z,65.00
2018-10-21T01:28:08.722Z,65.50
2018-10-21T01:30:37.532Z,65.00
2018-10-21T01:33:06.181Z,65.80
2018-10-21T01:35:34.433Z,65.30
2018-10-21T01:38:02.812Z,65.00
2018-10-21T01:40:35.764Z,65.00
2018-10-21T01:43:04.963Z,64.90
2018-10-21T01:45:33.495Z,65.40
2018-10-21T01:48:02.878Z,65.10
2018-10-21T01:50:31.325Z,64.70
2018-10-21T01:53:00.866Z,64.80
2018-10-21T01:55:29.443Z,64.90
2018-10-21T01:57:58.753Z,65.00
2018-10-21T02:00:27.654Z,65.30
2018-10-21T02:02:56.687Z,65.30
2018-10-21T02:05:25.427Z,65.80
2018-10-21T02:07:54.149Z,65.60
2018-10-21T02:10:22.470Z,65.80
2018-10-21T02:12:50.787Z,66.00
2018-10-21T02:15:19.328Z,66.10
2018-10-21T02:17:48.048Z,66.30
2018-10-21T02:20:17.004Z,66.00
2018-10-21T02:22:46.100Z,66.00
2018-10-21T02:25:14.951Z,65.90
2018-10-21T02:27:44.639Z,66.10
2018-10-21T02:30:15.783Z,65.80
2018-10-21T02:32:45.037Z,65.90
2018-10-21T02:35:13.861Z,66.00
2018-10-21T02:37:42.568Z,65.80
2018-10-21T02:41:28.283Z,65.70
2018-10-21T02:43:57.170Z,65.50
2018-10-21T02:46:25.742Z,65.80
2018-10-21T02:48:55.270Z,65.80
2018-10-21T02:51:23.751Z,65.50
2018-10-21T02:53:52.583Z,65.40
2018-10-21T02:56:20.902Z,65.70
2018-10-21T02:58:49.487Z,65.80
2018-10-21T03:01:18.186Z,65.80
2018-10-21T03:03:46.987Z,65.60
2018-10-21T03:06:15.494Z,65.40
2018-10-21T03:08:44.036Z,65.30
2018-10-21T03:11:12.573Z,65.60
2018-10-21T03:13:40.927Z,65.80
2018-10-21T03:16:09.206Z,66.00
2018-10-21T03:18:37.519Z,66.00
2018-10-21T03:21:05.950Z,66.10
2018-10-21T03:23:34.580Z,66.30
2018-10-21T03:26:03.235Z,66.90
2018-10-21T03:28:32.312Z,67.50
2018-10-21T03:31:00.812Z,67.80
2018-10-21T03:33:29.335Z,67.40
2018-10-21T03:35:57.880Z,67.00
2018-10-21T03:38:26.426Z,67.30
2018-10-21T03:40:54.755Z,67.40
2018-10-21T03:43:23.235Z,68.10
2018-10-21T03:45:51.571Z,67.30
2018-10-21T03:48:19.843Z,68.10
2018-10-21T03:50:48.479Z,67.30
2018-10-21T03:53:17.175Z,67.60
2018-10-21T03:55:45.480Z,67.60
2018-10-21T03:58:13.859Z,67.70
2018-10-21T04:00:42.104Z,67.50
2018-10-21T04:03:10.413Z,67.50
2018-10-21T04:05:39.081Z,67.50
2018-10-21T04:08:07.376Z,67.60
2018-10-21T04:10:36.150Z,67.50
2018-10-21T04:13:04.653Z,67.20
2018-10-21T04:15:32.928Z,67.40
2018-10-21T04:18:01.367Z,67.50
2018-10-21T04:20:30.208Z,67.50
2018-10-21T04:23:01.415Z,67.70
2018-10-21T04:25:31.241Z,68.00
2018-10-21T04:28:00.410Z,68.30
2018-10-21T04:30:30.701Z,68.50
2018-10-21T04:34:08.150Z,68.50
2018-10-21T04:36:36.846Z,68.60
2018-10-21T04:39:48.667Z,69.10
2018-10-21T04:42:17.313Z,69.10
2018-10-21T04:44:45.631Z,69.10
2018-10-21T04:47:13.928Z,69.10
2018-10-21T04:49:44.243Z,69.10
2018-10-21T04:52:12.545Z,69.20
2018-10-21T04:54:40.813Z,69.30
2018-10-21T04:57:09.472Z,69.60
2018-10-21T04:59:39.076Z,69.70
2018-10-21T05:02:07.739Z,69.60
2018-10-21T05:04:36.463Z,69.70
2018-10-21T05:07:05.154Z,69.90
2018-10-21T05:09:33.475Z,69.20
2018-10-21T05:12:01.733Z,69.30
2018-10-21T05:14:33.043Z,69.60
2018-10-21T05:17:01.754Z,69.80
2018-10-21T05:19:30.396Z,70.00
2018-10-21T05:21:58.708Z,70.30
2018-10-21T05:24:27.355Z,70.60
2018-10-21T05:26:55.975Z,70.80
2018-10-21T05:29:24.228Z,71.30
2018-10-21T05:31:52.471Z,71.40
2018-10-21T05:34:20.732Z,71.30
2018-10-21T05:36:49.070Z,71.40
2018-10-21T05:39:17.391Z,71.60
2018-10-21T05:41:45.690Z,71.50
2018-10-21T05:44:14.339Z,71.60
2018-10-21T05:46:46.510Z,71.60
2018-10-21T05:49:15.288Z,71.70
2018-10-21T05:51:45.048Z,72.20
2018-10-21T05:54:14.436Z,72.50
2018-10-21T05:56:44.009Z,72.60
2018-10-21T05:59:12.687Z,72.50
2018-10-21T06:01:41.487Z,72.60
2018-10-21T06:04:10.729Z,72.60
2018-10-21T06:06:39.311Z,72.60
2018-10-21T06:09:10.331Z,73.00
2018-10-21T06:11:38.668Z,73.20
2018-10-21T06:14:07.519Z,73.60
2018-10-21T06:16:41.475Z,73.90
2018-10-21T06:19:12.596Z,73.80
2018-10-21T06:21:42.275Z,74.00
2018-10-21T06:24:10.560Z,74.20
2018-10-21T06:26:38.833Z,74.20
2018-10-21T06:29:07.107Z,74.30
2018-10-21T06:31:35.668Z,74.50
2018-10-21T06:34:04.131Z,75.10
2018-10-21T06:36:32.382Z,75.40
2018-10-21T06:39:00.630Z,75.50
2018-10-21T06:41:29.229Z,75.50
2018-10-21T06:43:57.779Z,75.50
2018-10-21T06:46:26.111Z,75.60
2018-10-21T06:48:54.671Z,76.20
2018-10-21T06:51:23.354Z,76.30
2018-10-21T06:53:51.963Z,76.30
2018-10-21T06:56:20.571Z,76.60
2018-10-21T06:58:52.519Z,77.10
2018-10-21T07:01:20.795Z,77.10
2018-10-21T07:03:49.323Z,77.50
2018-10-21T07:06:24.455Z,77.60
2018-10-21T07:08:53.931Z,78.00
2018-10-21T07:11:30.828Z,78.50
2018-10-21T07:13:59.114Z,78.40
2018-10-21T07:16:27.545Z,79.80
2018-10-21T07:18:56.146Z,79.20
2018-10-21T07:21:24.877Z,79.20
2018-10-21T07:23:53.539Z,79.50
2018-10-21T07:26:22.010Z,79.50
2018-10-21T07:28:51.051Z,79.10
2018-10-21T07:31:19.470Z,79.20
2018-10-21T07:33:47.742Z,79.00
2018-10-21T07:36:16.125Z,78.60
2018-10-21T07:38:44.382Z,78.20
2018-10-21T07:41:12.726Z,78.10
2018-10-21T07:43:41.011Z,77.80
2018-10-21T07:46:09.565Z,78.60
2018-10-21T07:48:38.289Z,80.10
2018-10-21T07:51:07.074Z,79.40
2018-10-21T07:53:35.416Z,79.60
2018-10-21T07:56:03.711Z,78.80
2018-10-21T07:58:31.972Z,78.90
2018-10-21T08:01:00.318Z,78.90
2018-10-21T08:03:28.650Z,77.70
2018-10-21T08:06:17.727Z,77.10
2018-10-21T08:08:46.043Z,76.90
2018-10-21T08:11:14.524Z,76.80
2018-10-21T08:13:42.815Z,77.30
2018-10-21T08:16:11.197Z,77.40
2018-10-21T08:18:39.500Z,77.20
2018-10-21T08:21:07.813Z,75.00
2018-10-21T08:23:36.173Z,75.30
2018-10-21T08:26:04.663Z,75.20
2018-10-21T08:28:32.979Z,75.90
2018-10-21T08:31:01.333Z,74.80
2018-10-21T08:33:29.727Z,75.60
2018-10-21T08:35:58.053Z,74.20
2018-10-21T08:38:26.315Z,74.40
2018-10-21T08:40:54.607Z,74.70
2018-10-21T08:43:22.902Z,76.40
2018-10-21T08:45:51.275Z,77.10
2018-10-21T08:48:19.630Z,76.70
2018-10-21T08:50:47.899Z,77.70
2018-10-21T08:53:16.204Z,77.40
2018-10-21T08:55:44.595Z,78.00
2018-10-21T08:58:12.915Z,78.00
2018-10-21T09:00:41.312Z,78.40
2018-10-21T09:03:09.667Z,77.20
2018-10-21T09:05:37.988Z,76.00
2018-10-21T09:08:06.344Z,76.30
2018-10-21T09:10:34.881Z,75.20
2018-10-21T09:13:03.216Z,74.10
2018-10-21T09:15:31.795Z,73.20
2018-10-21T09:18:00.055Z,73.20
2018-10-21T09:20:28.307Z,71.20
2018-10-21T09:22:56.563Z,69.70
2018-10-21T09:25:25.275Z,69.20
2018-10-21T09:27:53.624Z,70.10
2018-10-21T09:30:21.980Z,67.70
2018-10-21T09:32:50.651Z,66.90
2018-10-21T09:35:19.263Z,67.60
2018-10-21T09:37:47.894Z,68.20
2018-10-21T09:40:17.501Z,68.20
2018-10-21T09:42:46.248Z,66.70
2018-10-21T09:45:15.961Z,64.90
2018-10-21T09:47:44.518Z,64.30
2018-10-21T09:50:13.059Z,66.00
2018-10-21T09:52:41.465Z,66.30
2018-10-21T09:55:14.597Z,63.50
2018-10-21T09:57:43.648Z,61.20
2018-10-21T10:00:12.151Z,60.60
2018-10-21T10:02:45.999Z,60.40
2018-10-21T10:05:14.613Z,60.30
2018-10-21T10:07:42.907Z,59.60
2018-10-21T10:10:11.459Z,58.20
2018-10-21T10:12:39.803Z,58.10
2018-10-21T10:15:34.361Z,58.00
2018-10-21T10:18:02.643Z,57.00
2018-10-21T10:20:31.215Z,57.60
2018-10-21T10:22:59.480Z,57.00
2018-10-21T10:25:28.040Z,57.70
2018-10-21T10:27:56.372Z,56.40
2018-10-21T10:30:25.036Z,56.20
2018-10-21T10:32:53.548Z,56.90
2018-10-21T10:35:22.030Z,57.50
2018-10-21T10:37:50.519Z,57.60
2018-10-21T10:40:19.312Z,57.30
2018-10-21T10:42:47.552Z,57.30
2018-10-21T10:45:16.387Z,56.50
2018-10-21T10:47:45.068Z,55.80
2018-10-21T10:50:13.388Z,56.40
2018-10-21T10:52:41.631Z,56.80
2018-10-21T10:55:10.242Z,56.00
2018-10-21T10:57:38.613Z,57.00
2018-10-21T11:00:09.033Z,56.70
2018-10-21T11:02:37.450Z,55.90
2018-10-21T11:05:06.433Z,54.90
2018-10-21T11:07:34.829Z,54.90
2018-10-21T11:10:03.269Z,54.60
2018-10-21T11:12:31.545Z,54.10
2018-10-21T11:15:45.521Z,53.00
2018-10-21T11:18:13.812Z,52.10
2018-10-21T11:20:42.467Z,51.60
2018-10-21T11:23:11.089Z,50.90
2018-10-21T11:25:39.399Z,50.60
2018-10-21T11:28:08.234Z,50.80
2018-10-21T11:30:37.694Z,50.20
2018-10-21T11:33:06.326Z,50.20
2018-10-21T11:35:34.616Z,48.70
2018-10-21T11:38:02.952Z,48.90
2018-10-21T11:40:31.706Z,49.00
2018-10-21T11:43:00.075Z,49.50
2018-10-21T11:45:28.465Z,50.20
2018-10-21T11:47:57.058Z,48.90
2018-10-21T11:50:25.349Z,48.80
2018-10-21T11:52:53.846Z,48.70
2018-10-21T11:55:22.379Z,49.10
2018-10-21T11:57:50.858Z,48.60
2018-10-21T12:00:19.439Z,47.90
2018-10-21T12:02:47.805Z,48.20
2018-10-21T12:05:16.127Z,48.60
2018-10-21T12:07:44.776Z,48.80
2018-10-21T12:10:13.189Z,48.90
2018-10-21T12:12:41.472Z,48.90
2018-10-21T12:15:56.205Z,49.00
2018-10-21T12:18:24.584Z,48.60
2018-10-21T12:20:52.959Z,47.60
2018-10-21T12:23:21.337Z,47.90
2018-10-21T12:25:49.865Z,48.30
2018-10-21T12:28:18.477Z,48.00
2018-10-21T12:30:46.831Z,47.50
2018-10-21T12:33:15.427Z,47.80
2018-10-21T12:35:44.108Z,47.60
2018-10-21T12:38:12.434Z,47.50
2018-10-21T12:40:40.787Z,47.40
2018-10-21T12:43:09.144Z,48.00
2018-10-21T12:45:37.453Z,47.50
2018-10-21T12:48:06.016Z,48.20
2018-10-21T12:50:34.614Z,49.00
2018-10-21T12:53:02.929Z,48.80
2018-10-21T12:55:31.426Z,47.10
2018-10-21T12:57:59.756Z,46.30
2018-10-21T13:00:28.043Z,45.40
2018-10-21T13:02:56.313Z,44.60
2018-10-21T13:05:24.812Z,44.60
2018-10-21T13:07:53.432Z,44.00
2018-10-21T13:10:21.958Z,42.80
2018-10-21T13:12:50.308Z,43.10
2018-10-21T13:16:08.920Z,42.40
2018-10-21T13:18:37.298Z,42.40
2018-10-21T13:21:05.678Z,42.80
2018-10-21T13:23:34.019Z,42.30
2018-10-21T13:26:02.423Z,42.10
2018-10-21T13:28:31.084Z,41.30
2018-10-21T13:30:59.325Z,41.60
2018-10-21T13:33:27.607Z,41.70
2018-10-21T13:35:56.112Z,41.30
2018-10-21T13:38:24.434Z,40.80
2018-10-21T13:40:53.078Z,40.80
2018-10-21T13:43:21.420Z,41.40
2018-10-21T13:45:50.177Z,41.40
2018-10-21T13:48:18.488Z,41.10
2018-10-21T13:50:46.857Z,41.30
2018-10-21T13:53:15.197Z,39.80
2018-10-21T13:55:43.479Z,39.70
2018-10-21T13:58:12.193Z,40.20
2018-10-21T14:00:40.810Z,40.40
2018-10-21T14:03:09.253Z,40.00
2018-10-21T14:05:37.542Z,40.30
2018-10-21T14:08:06.299Z,40.00
2018-10-21T14:10:34.884Z,39.80
2018-10-21T14:13:03.195Z,39.60
2018-10-21T14:18:50.665Z,39.60
2018-10-21T14:21:18.930Z,39.30
2018-10-21T14:23:47.175Z,39.50
2018-10-21T14:26:15.471Z,39.50
2018-10-21T14:28:43.788Z,39.50
2018-10-21T14:31:12.439Z,40.00
2018-10-21T14:33:40.698Z,40.70
2018-10-21T14:36:09.063Z,41.10
2018-10-21T14:38:37.323Z,40.50
2018-10-21T14:41:05.670Z,41.00
2018-10-21T14:43:33.992Z,40.30
2018-10-21T14:46:02.842Z,40.90
2018-10-21T14:48:30.994Z,41.50
2018-10-21T14:50:59.320Z,41.10
2018-10-21T14:53:27.654Z,40.60
2018-10-21T14:55:56.015Z,41.00
2018-10-21T14:58:24.240Z,41.40
2018-10-21T15:00:52.558Z,41.30
2018-10-21T15:03:20.879Z,41.60
2018-10-21T15:05:49.207Z,41.80
2018-10-21T15:08:18.063Z,42.40
2018-10-21T15:10:46.350Z,42.30
2018-10-21T15:13:14.620Z,42.80
2018-10-21T15:19:01.522Z,43.60
2018-10-21T15:21:29.793Z,43.80
2018-10-21T15:23:58.092Z,44.20
2018-10-21T15:26:26.376Z,44.80
2018-10-21T15:28:54.641Z,44.60
2018-10-21T15:31:23.142Z,45.20
2018-10-21T15:33:52.121Z,45.10
2018-10-21T15:36:20.460Z,45.90
2018-10-21T15:38:48.795Z,46.30
2018-10-21T15:41:17.367Z,46.40
2018-10-21T15:43:46.251Z,46.30
2018-10-21T15:46:14.641Z,46.80
2018-10-21T15:48:42.911Z,47.10
2018-10-21T15:51:11.204Z,47.50
2018-10-21T15:53:39.539Z,48.30
2018-10-21T15:56:07.906Z,48.60
2018-10-21T15:58:36.439Z,49.10
2018-10-21T16:01:04.868Z,49.30
2018-10-21T16:03:33.163Z,48.60
2018-10-21T16:06:01.452Z,49.20
2018-10-21T16:08:30.020Z,49.20
2018-10-21T16:10:58.341Z,49.20
2018-10-21T16:13:26.940Z,48.80
2018-10-21T16:16:48.477Z,48.90
2018-10-21T16:19:16.775Z,49.30
2018-10-21T16:21:45.074Z,50.10
2018-10-21T16:24:13.359Z,50.30
2018-10-21T16:26:41.639Z,50.60
2018-10-21T16:29:09.992Z,51.60
2018-10-21T16:31:38.294Z,51.90
2018-10-21T16:34:06.617Z,51.40
2018-10-21T16:36:34.897Z,51.90
2018-10-21T16:39:04.425Z,51.40
2018-10-21T16:41:33.703Z,51.30
2018-10-21T16:44:01.995Z,51.40
2018-10-21T16:46:30.329Z,51.50
2018-10-21T16:48:58.648Z,50.90
2018-10-21T16:51:27.051Z,50.10
2018-10-21T16:53:55.301Z,49.70
2018-10-21T16:56:23.641Z,49.50
2018-10-21T16:58:51.884Z,49.40
2018-10-21T17:01:20.200Z,49.50
2018-10-21T17:03:48.737Z,49.40
2018-10-21T17:06:17.100Z,49.70
2018-10-21T17:08:45.495Z,49.90
2018-10-21T17:11:13.754Z,50.00
2018-10-21T17:13:42.069Z,50.10
2018-10-21T17:19:30.028Z,50.40
2018-10-21T17:21:58.341Z,50.00
2018-10-21T17:24:26.656Z,50.30
2018-10-21T17:26:54.954Z,50.20
2018-10-21T17:29:23.204Z,50.10
2018-10-21T17:31:51.616Z,49.90
2018-10-21T17:34:19.950Z,49.70
2018-10-21T17:36:49.170Z,49.30
2018-10-21T17:39:24.616Z,49.10
2018-10-21T17:41:56.914Z,48.90
2018-10-21T17:44:33.891Z,48.40
2018-10-21T17:47:11.455Z,48.80
2018-10-21T17:49:41.658Z,48.70
2018-10-21T17:52:22.130Z,48.50
2018-10-21T17:54:50.411Z,48.60
2018-10-21T17:57:18.763Z,48.70
2018-10-21T17:59:47.517Z,48.70
2018-10-21T18:02:16.107Z,48.40
2018-10-21T18:04:46.080Z,48.60
2018-10-21T18:07:14.834Z,48.60
2018-10-21T18:09:45.916Z,49.10
2018-10-21T18:12:14.280Z,49.10
2018-10-21T18:15:08.377Z,48.60
2018-10-21T18:17:37.399Z,48.40
2018-10-21T18:20:06.824Z,48.70
2018-10-21T18:22:35.206Z,48.60
2018-10-21T18:25:03.903Z,48.40
2018-10-21T18:27:32.513Z,48.20
2018-10-21T18:30:01.041Z,48.70
2018-10-21T18:32:29.805Z,48.40
2018-10-21T18:34:59.016Z,48.20
2018-10-21T18:37:27.694Z,48.20
2018-10-21T18:39:56.364Z,48.10
2018-10-21T18:42:25.064Z,48.20
2018-10-21T18:44:55.687Z,48.30
2018-10-21T18:47:24.631Z,47.90
2018-10-21T18:49:53.415Z,47.60
2018-10-21T18:52:23.076Z,46.80
2018-10-21T18:54:51.947Z,46.30
2018-10-21T18:57:21.610Z,46.00
2018-10-21T18:59:50.219Z,45.60
2018-10-21T19:02:19.101Z,45.00
2018-10-21T19:04:49.813Z,45.10
2018-10-21T19:07:18.539Z,45.10
2018-10-21T19:09:49.696Z,45.40
2018-10-21T19:12:18.821Z,45.70
2018-10-21T19:15:12.697Z,45.90
2018-10-21T19:17:41.693Z,45.90
2018-10-21T19:20:14.156Z,45.60
2018-10-21T19:22:42.891Z,44.90
2018-10-21T19:25:12.983Z,43.70
2018-10-21T19:27:41.886Z,43.10
2018-10-21T19:30:11.454Z,42.00
2018-10-21T19:32:40.390Z,42.00
2018-10-21T19:35:09.817Z,41.10
2018-10-21T19:37:38.381Z,41.10
2018-10-21T19:40:07.803Z,40.70
2018-10-21T19:42:36.015Z,40.30
2018-10-21T19:45:04.880Z,40.80
2018-10-21T19:47:33.263Z,42.30
2018-10-21T19:50:01.892Z,42.40
2018-10-21T19:52:30.358Z,42.10
2018-10-21T19:54:58.762Z,41.50
2018-10-21T19:57:27.162Z,41.30
2018-10-21T19:59:55.540Z,41.20
2018-10-21T20:02:23.874Z,41.00
2018-10-21T20:04:52.248Z,40.20
2018-10-21T20:07:21.564Z,40.70
2018-10-21T20:09:49.951Z,39.60
2018-10-21T20:12:18.472Z,39.30
2018-10-21T20:15:20.211Z,39.50
2018-10-21T20:17:48.475Z,38.70
2018-10-21T20:20:16.803Z,39.10
2018-10-21T20:22:45.101Z,39.50
2018-10-21T20:25:13.428Z,39.50
2018-10-21T20:30:38.049Z,40.20
2018-10-21T20:33:06.336Z,39.90
2018-10-21T20:35:35.327Z,39.50
2018-10-21T20:38:03.673Z,39.50
2018-10-21T20:40:32.566Z,38.30
2018-10-21T20:43:00.826Z,38.20
2018-10-21T20:45:29.189Z,38.70
2018-10-21T20:47:57.566Z,39.00
2018-10-21T20:50:25.996Z,39.30
2018-10-21T20:52:54.303Z,39.30
2018-10-21T20:55:22.731Z,39.00
2018-10-21T20:57:51.183Z,39.50
2018-10-21T21:00:19.507Z,40.10
2018-10-21T21:02:47.807Z,40.10
2018-10-21T21:05:16.168Z,41.10
2018-10-21T21:07:44.511Z,41.80
2018-10-21T21:10:12.871Z,42.70
2018-10-21T21:12:41.225Z,42.60
2018-10-21T21:15:50.759Z,43.10
2018-10-21T21:18:19.173Z,44.00
2018-10-21T21:20:47.563Z,44.40
2018-10-21T21:23:15.834Z,44.30
2018-10-21T21:25:44.101Z,45.00
2018-10-21T21:28:12.489Z,44.90
2018-10-21T21:30:40.863Z,45.20
2018-10-21T21:33:09.347Z,45.50
2018-10-21T21:35:37.828Z,45.60
2018-10-21T21:38:06.207Z,46.20
2018-10-21T21:40:34.483Z,46.70
2018-10-21T21:43:02.815Z,46.90
2018-10-21T21:45:31.231Z,47.80
2018-10-21T21:47:59.676Z,47.10
2018-10-21T21:50:27.983Z,47.20
2018-10-21T21:52:56.338Z,47.40
2018-10-21T21:55:24.593Z,47.30
2018-10-21T21:57:52.904Z,47.50
2018-10-21T22:00:21.235Z,47.60
2018-10-21T22:02:49.467Z,47.90
2018-10-21T22:05:17.758Z,47.90
2018-10-21T22:07:46.017Z,47.70
2018-10-21T22:10:14.398Z,48.20
2018-10-21T22:12:43.576Z,48.50
2018-10-21T22:15:11.879Z,48.40
2018-10-21T22:17:40.843Z,48.30
2018-10-21T22:20:09.363Z,48.00
2018-10-21T22:22:37.609Z,47.80
2018-10-21T22:25:06.105Z,47.70
2018-10-21T22:27:34.579Z,47.80
2018-10-21T22:30:02.967Z,47.90
2018-10-21T22:32:31.308Z,47.80
2018-10-21T22:34:59.628Z,47.90
2018-10-21T22:37:27.891Z,48.00
2018-10-21T22:39:56.236Z,47.90
2018-10-21T22:42:24.519Z,48.00
2018-10-21T22:44:52.819Z,47.90
2018-10-21T22:47:22.491Z,48.50
2018-10-21T22:49:51.123Z,48.70
2018-10-21T22:52:19.597Z,48.90
2018-10-21T22:54:49.002Z,48.90
2018-10-21T22:57:18.393Z,49.20
2018-10-21T22:59:49.659Z,49.40
2018-10-21T23:02:17.955Z,49.70
2018-10-21T23:04:48.099Z,49.70
2018-10-21T23:07:16.425Z,49.60
2018-10-21T23:09:47.222Z,49.90
2018-10-21T23:12:15.667Z,49.90
2018-10-21T23:14:45.757Z,50.20
2018-10-21T23:17:14.098Z,50.20
2018-10-21T23:19:43.559Z,50.50
2018-10-21T23:22:12.021Z,50.40
2018-10-21T23:24:40.687Z,50.80
2018-10-21T23:27:11.024Z,50.80
2018-10-21T23:29:40.144Z,50.90
2018-10-21T23:32:08.880Z,51.10
2018-10-21T23:34:37.198Z,50.70
2018-10-21T23:37:05.564Z,50.70
2018-10-21T23:39:33.824Z,51.00
2018-10-21T23:42:02.421Z,50.90
2018-10-21T23:44:31.156Z,50.80
2018-10-21T23:46:59.735Z,50.80
2018-10-21T23:49:28.394Z,50.90
2018-10-21T23:51:56.731Z,50.80
2018-10-21T23:54:25.019Z,51.00
2018-10-21T23:56:53.372Z,51.20
2018-10-21T23:59:21.763Z,50.90
